Skip Navigation Links Skip Navigation Links

Current Weather

Chicago Executive, Wheeling, Ill.

For information only: do not use for flight planning or navigation.
Latest weather
Observation time Sunday, October 13, 2019 5:52 PM CDT
Local time Sunday, October 13, 2019 6:05 PM CDT
Flight conditions Visual Meteorological Conditions
Winds
Wind direction West (280°)
Wind speed 13 mph
Wind gusting to 20 mph
Visibility 10 mi.
Sky condition
Ceiling 8,000 ft. overcast
Cloud layer few clouds 6,000 ft.
Cloud layer overcast 8,000 ft.
Temperature 49°F
Dewpoint 32°F
Altimeter 29.88 in.Hg
Derived measurements
Relative humidity 52%
Wind chill 44°F
Density altitude 118 ft.
Sea-level pressure 29.89 in.Hg
Remarks
Automated weather observing station with precipitation discriminator.
METAR KPWK 132252Z 28011G17KT 10SM FEW060 OVC080 09/00 A2988 RMK AO2 SLP121 T00940000

Settings

Location code

InnerDrive.Weather 4.0.6770.0 Release CLR 4.0.30319.42000
Copyright ©2018 Inner Drive Technology. All rights reserved. Portions Copyright ©1986-2018 David Braverman.

Find weather

Site navigation


Skip Navigation Links

Place info

Page info

PayPal - The safer, easier way to pay online!

Return home.

Copyright ©2019 Inner Drive Technology. Purveyors of fine, hand-crafted computer software. Page printed 2019-10-13T23:05:29 UTC.